createdAt,value
2019-03-05T00:01:54.797Z,58.60
2019-03-05T00:05:01.860Z,58.60
2019-03-05T00:08:07.402Z,58.30
2019-03-05T00:11:11.872Z,58.60
2019-03-05T00:14:18.761Z,59.30
2019-03-05T00:17:24.204Z,58.60
2019-03-05T00:20:28.621Z,58.50
2019-03-05T00:23:49.850Z,58.50
2019-03-05T00:26:54.223Z,58.50
2019-03-05T00:30:40.227Z,58.50
2019-03-05T00:34:29.437Z,58.50
2019-03-05T00:37:57.779Z,58.50
2019-03-05T00:41:39.753Z,58.50
2019-03-05T00:45:07.584Z,58.60
2019-03-05T00:48:42.097Z,58.60
2019-03-05T00:52:24.832Z,58.60
2019-03-05T00:56:16.411Z,58.60
2019-03-05T00:59:37.324Z,58.50
2019-03-05T01:03:31.588Z,58.50
2019-03-05T01:06:43.940Z,58.50
2019-03-05T01:09:48.624Z,58.20
2019-03-05T01:12:53.044Z,58.60
2019-03-05T01:15:57.812Z,58.60
2019-03-05T01:19:02.135Z,58.70
2019-03-05T01:22:06.764Z,58.60
2019-03-05T01:25:26.816Z,58.60
2019-03-05T01:28:31.484Z,58.60
2019-03-05T01:31:43.218Z,58.60
2019-03-05T01:34:53.568Z,58.50
2019-03-05T01:37:57.886Z,58.50
2019-03-05T01:41:07.129Z,58.60
2019-03-05T01:44:11.446Z,58.60
2019-03-05T01:47:15.706Z,58.70
2019-03-05T01:50:20.022Z,58.80
2019-03-05T01:53:24.326Z,58.90
2019-03-05T01:56:29.767Z,59.00
2019-03-05T01:59:35.755Z,59.00
2019-03-05T02:02:40.867Z,59.10
2019-03-05T02:05:45.338Z,59.10
2019-03-05T02:08:49.655Z,59.30
2019-03-05T02:11:54.329Z,59.30
2019-03-05T02:14:58.675Z,59.20
2019-03-05T02:18:02.999Z,59.10
2019-03-05T02:21:07.324Z,59.10
2019-03-05T02:25:04.877Z,59.10
2019-03-05T02:28:31.391Z,59.10
2019-03-05T02:32:11.889Z,59.20
2019-03-05T02:36:09.890Z,59.10
2019-03-05T02:39:42.397Z,59.10
2019-03-05T02:42:59.202Z,59.00
2019-03-05T02:46:44.510Z,59.00
2019-03-05T02:50:45.661Z,59.00
2019-03-05T02:54:02.626Z,58.80
2019-03-05T02:57:09.734Z,59.60
2019-03-05T03:00:19.414Z,59.10
2019-03-05T03:03:32.324Z,59.00
2019-03-05T03:06:37.540Z,59.10
2019-03-05T03:10:14.044Z,59.00
2019-03-05T03:13:18.420Z,59.00
2019-03-05T03:16:22.746Z,59.20
2019-03-05T03:19:27.139Z,59.30
2019-03-05T03:22:31.468Z,59.30
2019-03-05T03:25:36.370Z,59.10
2019-03-05T03:28:40.753Z,59.00
2019-03-05T03:31:45.328Z,58.80
2019-03-05T03:34:49.635Z,58.70
2019-03-05T03:37:54.066Z,58.70
2019-03-05T03:40:58.443Z,58.70
2019-03-05T03:44:03.083Z,58.60
2019-03-05T03:47:07.569Z,58.60
2019-03-05T03:50:12.385Z,58.70
2019-03-05T03:53:18.270Z,58.80
2019-03-05T03:56:22.624Z,58.80
2019-03-05T03:59:27.410Z,58.80
2019-03-05T04:02:32.188Z,58.90
2019-03-05T04:05:36.975Z,58.80
2019-03-05T04:08:41.669Z,59.00
2019-03-05T04:11:46.011Z,58.90
2019-03-05T04:14:50.318Z,59.00
2019-03-05T04:17:56.670Z,58.90
2019-03-05T04:21:01.481Z,58.90
2019-03-05T04:24:06.153Z,59.00
2019-03-05T04:27:10.474Z,58.90
2019-03-05T04:30:15.013Z,58.90
2019-03-05T04:33:19.354Z,58.80
2019-03-05T04:36:23.614Z,58.80
2019-03-05T04:39:28.339Z,59.40
2019-03-05T04:42:32.940Z,58.80
2019-03-05T04:46:09.570Z,58.80
2019-03-05T04:49:45.251Z,58.80
2019-03-05T04:53:08.634Z,58.80
2019-03-05T04:56:15.446Z,58.80
2019-03-05T04:59:19.835Z,58.80
2019-03-05T05:02:24.218Z,58.90
2019-03-05T05:05:28.539Z,58.90
2019-03-05T05:08:32.853Z,59.10
2019-03-05T05:11:37.181Z,59.10
2019-03-05T05:14:41.860Z,59.00
2019-03-05T05:17:46.182Z,58.80
2019-03-05T05:20:50.614Z,58.80
2019-03-05T05:23:55.470Z,58.80
2019-03-05T05:27:00.215Z,58.90
2019-03-05T05:30:06.826Z,58.80
2019-03-05T05:33:11.197Z,58.80
2019-03-05T05:36:15.663Z,58.70
2019-03-05T05:39:55.863Z,59.50
2019-03-05T05:43:00.267Z,58.80
2019-03-05T05:46:04.665Z,58.90
2019-03-05T05:49:09.017Z,59.00
2019-03-05T05:52:13.394Z,59.00
2019-03-05T05:55:17.822Z,59.00
2019-03-05T05:58:22.154Z,59.00
2019-03-05T06:01:28.243Z,58.90
2019-03-05T06:04:33.015Z,58.90
2019-03-05T06:07:38.365Z,58.80
2019-03-05T06:10:42.724Z,58.70
2019-03-05T06:13:47.047Z,58.80
2019-03-05T06:16:51.318Z,58.60
2019-03-05T06:19:55.649Z,58.60
2019-03-05T06:22:59.951Z,58.70
2019-03-05T06:26:04.229Z,58.60
2019-03-05T06:29:08.644Z,58.60
2019-03-05T06:32:13.037Z,58.60
2019-03-05T06:35:17.860Z,58.60
2019-03-05T06:38:22.183Z,58.50
2019-03-05T06:41:28.332Z,59.00
2019-03-05T06:44:34.498Z,58.30
2019-03-05T06:47:38.815Z,58.20
2019-03-05T06:50:45.920Z,58.10
2019-03-05T06:53:50.232Z,58.10
2019-03-05T06:56:54.565Z,58.10
2019-03-05T06:59:58.809Z,58.10
2019-03-05T07:03:03.605Z,58.10
2019-03-05T07:06:43.929Z,58.00
2019-03-05T07:10:10.471Z,58.10
2019-03-05T07:13:20.815Z,58.10
2019-03-05T07:16:45.767Z,58.10
2019-03-05T07:20:29.863Z,58.20
2019-03-05T07:23:58.988Z,57.90
2019-03-05T07:27:04.725Z,58.00
2019-03-05T07:30:16.314Z,57.90
2019-03-05T07:33:21.743Z,58.40
2019-03-05T07:36:26.488Z,58.80
2019-03-05T07:39:30.894Z,58.90
2019-03-05T07:42:35.771Z,58.80
2019-03-05T07:45:40.189Z,58.60
2019-03-05T07:48:44.515Z,58.40
2019-03-05T07:51:48.977Z,58.50
2019-03-05T07:54:53.338Z,58.90
2019-03-05T07:57:57.658Z,59.30
2019-03-05T08:01:02.018Z,59.60
2019-03-05T08:04:06.450Z,59.10
2019-03-05T08:07:11.477Z,58.80
2019-03-05T08:10:24.741Z,59.50
2019-03-05T08:14:25.327Z,59.80
2019-03-05T08:17:29.762Z,59.80
2019-03-05T08:20:34.111Z,59.10
2019-03-05T08:23:38.771Z,58.60
2019-03-05T08:26:43.962Z,58.60
2019-03-05T08:29:48.656Z,58.70
2019-03-05T08:32:53.025Z,58.10
2019-03-05T08:35:57.374Z,57.20
2019-03-05T08:39:01.702Z,57.00
2019-03-05T08:42:06.481Z,56.50
2019-03-05T08:45:12.612Z,55.60
2019-03-05T08:48:17.309Z,55.50
2019-03-05T08:51:23.473Z,55.80
2019-03-05T08:54:27.778Z,56.30
2019-03-05T08:57:32.131Z,56.50
2019-03-05T09:00:36.855Z,56.70
2019-03-05T09:03:41.595Z,56.00
2019-03-05T09:06:48.935Z,55.30
2019-03-05T09:10:16.172Z,55.50
2019-03-05T09:13:32.394Z,55.40
2019-03-05T09:16:28.133Z,55.40
2019-03-05T09:19:32.462Z,55.30
2019-03-05T09:22:36.723Z,54.70
2019-03-05T09:25:42.195Z,54.40
2019-03-05T09:28:48.707Z,54.30
2019-03-05T09:31:54.944Z,54.20
2019-03-05T09:34:59.631Z,54.40
2019-03-05T09:38:04.010Z,54.80
2019-03-05T09:41:08.313Z,54.20
2019-03-05T09:44:12.643Z,54.00
2019-03-05T09:47:17.080Z,53.80
2019-03-05T09:50:21.492Z,53.70
2019-03-05T09:53:25.807Z,53.60
2019-03-05T09:56:30.314Z,53.50
2019-03-05T09:59:34.634Z,53.70
2019-03-05T10:02:38.950Z,53.70
2019-03-05T10:05:43.328Z,53.60
2019-03-05T10:08:47.617Z,53.50
2019-03-05T10:11:56.527Z,53.40
2019-03-05T10:14:58.020Z,53.50
2019-03-05T10:18:12.059Z,53.60
2019-03-05T10:21:11.929Z,54.20
2019-03-05T10:24:16.675Z,54.30
2019-03-05T10:27:21.026Z,54.30
2019-03-05T10:30:27.267Z,53.90
2019-03-05T10:33:31.596Z,53.40
2019-03-05T10:36:35.917Z,53.30
2019-03-05T10:39:42.559Z,53.20
2019-03-05T10:42:46.886Z,53.20
2019-03-05T10:45:51.419Z,53.70
2019-03-05T10:48:56.027Z,53.00
2019-03-05T10:52:00.640Z,52.90
2019-03-05T10:55:06.052Z,52.90
2019-03-05T10:58:10.826Z,53.00
2019-03-05T11:01:15.570Z,53.00
2019-03-05T11:04:20.004Z,53.30
2019-03-05T11:07:24.382Z,53.20
2019-03-05T11:10:30.965Z,53.30
2019-03-05T11:13:35.597Z,53.20
2019-03-05T11:16:40.549Z,53.80
2019-03-05T11:19:45.165Z,53.20
2019-03-05T11:22:49.981Z,53.20
2019-03-05T11:25:54.483Z,53.50
2019-03-05T11:29:01.203Z,53.50
2019-03-05T11:32:06.008Z,53.40
2019-03-05T11:35:11.158Z,53.20
2019-03-05T11:38:15.685Z,53.20
2019-03-05T11:41:20.050Z,53.00
2019-03-05T11:44:24.469Z,53.00
2019-03-05T11:47:28.822Z,53.10
2019-03-05T11:50:33.675Z,53.30
2019-03-05T11:53:38.475Z,53.70
2019-03-05T11:56:42.782Z,53.80
2019-03-05T11:59:47.012Z,53.70
2019-03-05T12:02:51.670Z,53.50
2019-03-05T12:05:56.492Z,53.40
2019-03-05T12:09:01.006Z,53.30
2019-03-05T12:12:05.806Z,53.20
2019-03-05T12:15:13.488Z,53.10
2019-03-05T12:18:17.867Z,53.40
2019-03-05T12:21:22.233Z,53.60
2019-03-05T12:24:28.569Z,53.70
2019-03-05T12:27:35.768Z,53.90
2019-03-05T12:30:39.814Z,54.10
2019-03-05T12:33:44.247Z,54.50
2019-03-05T12:36:49.038Z,54.90
2019-03-05T12:39:54.333Z,55.30
2019-03-05T12:43:19.795Z,55.20
2019-03-05T12:46:24.667Z,55.30
2019-03-05T12:49:29.307Z,55.70
2019-03-05T12:52:33.649Z,55.80
2019-03-05T12:55:41.311Z,56.20
2019-03-05T12:58:45.640Z,56.40
2019-03-05T13:01:49.957Z,56.70
2019-03-05T13:04:54.327Z,56.90
2019-03-05T13:07:59.102Z,57.10
2019-03-05T13:11:04.517Z,57.40
2019-03-05T13:14:12.174Z,57.40
2019-03-05T13:17:15.398Z,57.50
2019-03-05T13:20:22.680Z,57.90
2019-03-05T13:23:26.495Z,58.30
2019-03-05T13:26:31.003Z,58.70
2019-03-05T13:29:37.279Z,59.00
2019-03-05T13:32:41.776Z,59.70
2019-03-05T13:35:46.562Z,59.70
2019-03-05T13:38:51.425Z,60.20
2019-03-05T13:41:56.013Z,60.60
2019-03-05T13:45:00.723Z,60.70
2019-03-05T13:48:14.826Z,60.90
2019-03-05T13:52:00.695Z,61.00
2019-03-05T13:55:45.445Z,61.10
2019-03-05T13:59:16.416Z,61.10
2019-03-05T14:02:32.231Z,61.10
2019-03-05T14:06:23.555Z,60.90
2019-03-05T14:09:26.291Z,61.10
2019-03-05T14:12:30.691Z,61.00
2019-03-05T14:15:36.177Z,60.90
2019-03-05T14:18:40.964Z,60.90
2019-03-05T14:21:45.298Z,61.00
2019-03-05T14:24:58.299Z,61.10
2019-03-05T14:27:56.569Z,61.30
2019-03-05T14:31:01.214Z,61.60
2019-03-05T14:34:08.210Z,61.90
2019-03-05T14:37:14.169Z,62.00
2019-03-05T14:40:25.592Z,62.20
2019-03-05T14:43:30.197Z,62.20
2019-03-05T14:46:35.027Z,62.30
2019-03-05T14:49:39.485Z,62.30
2019-03-05T14:52:44.925Z,62.40
2019-03-05T14:55:49.356Z,62.50
2019-03-05T14:58:53.716Z,62.50
2019-03-05T15:01:58.763Z,62.50
2019-03-05T15:05:05.362Z,62.50
2019-03-05T15:08:10.148Z,62.40
2019-03-05T15:11:14.867Z,62.50
2019-03-05T15:14:19.638Z,62.60
2019-03-05T15:17:24.155Z,62.20
2019-03-05T15:20:29.389Z,62.20
2019-03-05T15:23:33.842Z,62.30
2019-03-05T15:26:38.697Z,62.20
2019-03-05T15:29:44.138Z,62.50
2019-03-05T15:32:50.040Z,62.50
2019-03-05T15:35:54.889Z,62.80
2019-03-05T15:39:00.969Z,62.70
2019-03-05T15:42:05.403Z,62.50
2019-03-05T15:45:12.875Z,61.70
2019-03-05T15:48:17.301Z,62.10
2019-03-05T15:51:21.961Z,61.80
2019-03-05T15:54:27.838Z,61.50
2019-03-05T15:57:32.520Z,61.20
2019-03-05T16:00:38.413Z,61.10
2019-03-05T16:03:43.034Z,61.10
2019-03-05T16:06:49.720Z,61.20
2019-03-05T16:09:54.047Z,61.50
2019-03-05T16:12:58.396Z,61.60
2019-03-05T16:16:02.730Z,61.90
2019-03-05T16:19:07.383Z,62.70
2019-03-05T16:22:14.307Z,62.00
2019-03-05T16:25:18.419Z,61.90
2019-03-05T16:28:22.827Z,61.80
2019-03-05T16:31:52.805Z,61.80
2019-03-05T16:35:18.639Z,61.90
2019-03-05T16:38:44.102Z,61.70
2019-03-05T16:41:57.484Z,62.10
2019-03-05T16:45:08.401Z,62.00
2019-03-05T16:48:30.820Z,61.80
2019-03-05T16:51:42.136Z,61.70
2019-03-05T16:54:52.702Z,61.70
2019-03-05T16:58:19.043Z,61.80
2019-03-05T17:01:48.123Z,62.00
2019-03-05T17:05:10.465Z,62.10
2019-03-05T17:08:23.994Z,62.30
2019-03-05T17:12:02.485Z,62.40
2019-03-05T17:15:07.834Z,62.40
2019-03-05T17:18:12.198Z,62.20
2019-03-05T17:21:27.151Z,62.20
2019-03-05T17:24:24.777Z,62.50
2019-03-05T17:27:29.178Z,62.70
2019-03-05T17:30:34.701Z,62.70
2019-03-05T17:33:39.014Z,62.60
2019-03-05T17:36:43.537Z,62.70
2019-03-05T17:39:47.959Z,62.70
2019-03-05T17:42:53.306Z,62.80
2019-03-05T17:45:59.160Z,62.90
2019-03-05T17:49:04.166Z,62.90
2019-03-05T17:52:08.915Z,63.00
2019-03-05T17:55:23.817Z,63.00
2019-03-05T17:58:41.667Z,63.10
2019-03-05T18:01:46.099Z,62.80
2019-03-05T18:04:50.364Z,63.20
2019-03-05T18:07:55.047Z,63.40
2019-03-05T18:10:59.645Z,63.60
2019-03-05T18:14:04.070Z,63.80
2019-03-05T18:17:08.459Z,63.60
2019-03-05T18:20:14.807Z,63.60
2019-03-05T18:23:19.676Z,63.50
2019-03-05T18:26:24.075Z,63.50
2019-03-05T18:29:29.097Z,63.40
2019-03-05T18:32:36.087Z,63.40
2019-03-05T18:35:40.548Z,63.30
2019-03-05T18:38:44.864Z,63.30
2019-03-05T18:41:49.511Z,63.30
2019-03-05T18:44:55.015Z,63.20
2019-03-05T18:47:59.455Z,63.00
2019-03-05T18:51:05.388Z,63.00
2019-03-05T18:54:11.838Z,63.00
2019-03-05T18:57:17.420Z,63.30
2019-03-05T19:00:23.455Z,63.50
2019-03-05T19:03:27.878Z,63.90
2019-03-05T19:06:32.546Z,64.10
2019-03-05T19:09:37.069Z,64.30
2019-03-05T19:12:42.042Z,64.40
2019-03-05T19:15:46.439Z,64.40
2019-03-05T19:18:51.222Z,65.00
2019-03-05T19:21:57.107Z,64.30
2019-03-05T19:25:01.869Z,64.10
2019-03-05T19:28:13.002Z,63.90
2019-03-05T19:31:17.962Z,63.60
2019-03-05T19:34:22.544Z,64.30
2019-03-05T19:37:27.785Z,64.50
2019-03-05T19:40:35.763Z,63.80
2019-03-05T19:43:40.632Z,63.60
2019-03-05T19:46:47.252Z,63.80
2019-03-05T19:49:52.800Z,63.80
2019-03-05T19:52:57.925Z,63.80
2019-03-05T19:56:03.119Z,63.60
2019-03-05T19:59:07.578Z,63.00
2019-03-05T20:02:12.325Z,63.30
2019-03-05T20:05:17.835Z,63.50
2019-03-05T20:08:22.175Z,63.70
2019-03-05T20:11:27.545Z,63.80
2019-03-05T20:14:32.472Z,63.90
2019-03-05T20:17:36.852Z,63.80
2019-03-05T20:20:43.051Z,63.80
2019-03-05T20:23:47.838Z,63.60
2019-03-05T20:26:57.031Z,63.30
2019-03-05T20:30:04.950Z,63.10
2019-03-05T20:33:09.773Z,62.80
2019-03-05T20:36:14.172Z,62.60
2019-03-05T20:39:18.639Z,62.50
2019-03-05T20:42:23.533Z,62.50
2019-03-05T20:45:29.546Z,62.50
2019-03-05T20:48:33.910Z,62.50
2019-03-05T20:51:40.298Z,62.60
2019-03-05T20:54:45.038Z,62.70
2019-03-05T20:57:50.004Z,62.80
2019-03-05T21:00:54.745Z,62.80
2019-03-05T21:03:59.148Z,63.00
2019-03-05T21:07:03.914Z,63.00
2019-03-05T21:10:09.768Z,63.00
2019-03-05T21:13:15.067Z,63.00
2019-03-05T21:16:19.510Z,63.10
2019-03-05T21:19:24.455Z,62.90
2019-03-05T21:22:29.679Z,64.00
2019-03-05T21:25:34.093Z,63.20
2019-03-05T21:28:38.471Z,63.20
2019-03-05T21:31:43.830Z,63.30
2019-03-05T21:34:48.231Z,63.30
2019-03-05T21:37:53.143Z,63.40
2019-03-05T21:40:58.579Z,63.50
2019-03-05T21:44:04.058Z,63.40
2019-03-05T21:47:08.956Z,63.40
2019-03-05T21:50:14.510Z,63.30
2019-03-05T21:53:18.992Z,63.30
2019-03-05T21:56:26.237Z,63.30
2019-03-05T21:59:33.317Z,63.30
2019-03-05T22:02:38.480Z,63.10
2019-03-05T22:05:42.986Z,63.40
2019-03-05T22:08:47.671Z,63.50
2019-03-05T22:11:52.378Z,63.50
2019-03-05T22:14:56.746Z,63.40
2019-03-05T22:18:01.395Z,63.50
2019-03-05T22:21:07.208Z,63.50
2019-03-05T22:24:11.610Z,63.50
2019-03-05T22:27:17.584Z,63.50
2019-03-05T22:30:26.941Z,63.50
2019-03-05T22:33:31.353Z,63.50
2019-03-05T22:36:35.776Z,63.60
2019-03-05T22:39:40.151Z,63.70
2019-03-05T22:42:51.391Z,63.70
2019-03-05T22:45:56.117Z,63.50
2019-03-05T22:49:02.858Z,64.50
2019-03-05T22:52:07.067Z,63.80
2019-03-05T22:55:11.839Z,63.80
2019-03-05T22:58:16.298Z,63.90
2019-03-05T23:01:37.716Z,63.80
2019-03-05T23:04:44.515Z,63.70
2019-03-05T23:07:48.867Z,64.40
2019-03-05T23:10:53.558Z,63.80
2019-03-05T23:13:57.877Z,63.80
2019-03-05T23:17:02.568Z,63.80
2019-03-05T23:20:07.847Z,63.70
2019-03-05T23:23:12.943Z,63.70
2019-03-05T23:26:18.612Z,63.60
2019-03-05T23:29:31.861Z,63.60
2019-03-05T23:32:36.656Z,63.60
2019-03-05T23:35:41.512Z,63.50
2019-03-05T23:38:46.197Z,63.60
2019-03-05T23:41:50.526Z,63.60
2019-03-05T23:44:55.741Z,63.60
2019-03-05T23:48:00.411Z,63.60
2019-03-05T23:51:05.549Z,63.50
2019-03-05T23:54:10.379Z,63.50
2019-03-05T23:57:15.386Z,63.90
